Time;durP1;ratioP1;P1;durP2;ratioP2;P2;SDS_P1;SDS_P2;PMS_P1;PMS_P2;Temp;Humidity;BMP_temperature;BMP_pressure;BME280_temperature;BME280_humidity;BME280_pressure;Samples;Min_cycle;Max_cycle;Signal;HPM_P1;HPM_P2
2022/07/12 00:00:42;;;;;;;8.20;6.80;;;13.30;24.80;;;;;;5002207;28;20145;-91
2022/07/12 00:03:29;;;;;;;12.38;6.82;;;13.40;35.00;;;;;;5020062;28;20064;-90
2022/07/12 00:06:19;;;;;;;7.75;7.03;;;13.40;27.30;;;;;;5022415;28;20048;-89
2022/07/12 00:09:07;;;;;;;10.32;6.68;;;13.50;27.50;;;;;;4991583;28;20053;-90
2022/07/12 00:11:55;;;;;;;11.48;7.25;;;13.70;21.60;;;;;;4999419;28;20081;-90
2022/07/12 00:14:44;;;;;;;10.55;6.68;;;13.70;8.70;;;;;;5001953;28;20093;-90
2022/07/12 00:17:34;;;;;;;7.82;6.50;;;13.80;1.00;;;;;;5015567;28;20037;-90
2022/07/12 00:20:21;;;;;;;9.35;6.50;;;13.70;4.80;;;;;;5012186;28;20138;-85
2022/07/12 00:23:08;;;;;;;7.18;6.25;;;13.60;4.40;;;;;;5010490;28;20163;-86
2022/07/12 00:25:56;;;;;;;10.55;7.55;;;13.40;17.70;;;;;;5009908;28;20111;-85
2022/07/12 00:28:43;;;;;;;12.20;7.68;;;13.40;34.90;;;;;;5014977;28;20069;-86
2022/07/12 00:31:33;;;;;;;7.72;6.93;;;13.40;35.80;;;;;;5016147;28;20188;-86
2022/07/12 00:34:20;;;;;;;8.20;7.30;;;13.30;38.90;;;;;;5015836;28;20049;-85
2022/07/12 00:37:07;;;;;;;8.30;7.43;;;13.20;40.30;;;;;;5016084;28;20042;-85
2022/07/12 00:39:55;;;;;;;8.80;7.20;;;13.00;42.00;;;;;;5016164;28;20049;-85
2022/07/12 00:42:42;;;;;;;10.60;7.38;;;12.90;50.30;;;;;;5012889;28;20050;-85
2022/07/12 00:45:34;;;;;;;8.73;7.80;;;12.80;58.00;;;;;;4996173;28;20057;-86
2022/07/12 00:48:24;;;;;;;9.90;7.65;;;12.70;65.20;;;;;;4991900;28;20068;-86
2022/07/12 00:51:14;;;;;;;8.90;7.47;;;12.70;70.30;;;;;;4998101;28;20046;-85
2022/07/12 00:54:03;;;;;;;17.75;8.90;;;12.60;82.00;;;;;;5020178;28;20116;-85
2022/07/12 00:56:54;;;;;;;12.07;8.52;;;12.60;95.50;;;;;;5021262;28;20080;-85
2022/07/12 00:59:41;;;;;;;9.38;8.23;;;12.60;97.00;;;;;;5022315;28;20045;-85
2022/07/12 01:02:28;;;;;;;12.55;9.68;;;12.70;98.70;;;;;;5010831;28;20176;-86
2022/07/12 01:05:16;;;;;;;14.38;8.77;;;12.70;99.90;;;;;;5023474;28;20046;-86
2022/07/12 01:08:03;;;;;;;12.63;9.15;;;12.80;99.90;;;;;;5021736;28;20057;-88
2022/07/12 01:10:51;;;;;;;10.90;8.85;;;12.70;99.90;;;;;;5007286;28;20104;-88
2022/07/12 01:13:39;;;;;;;11.27;8.23;;;12.70;99.90;;;;;;5016732;28;20073;-86
2022/07/12 01:16:30;;;;;;;10.80;9.23;;;12.60;99.90;;;;;;5017521;28;20061;-86
2022/07/12 01:19:20;;;;;;;12.18;9.95;;;12.70;99.90;;;;;;5016923;28;20050;-87
2022/07/12 01:22:10;;;;;;;12.45;9.80;;;12.90;99.90;;;;;;5021327;28;20071;-87
2022/07/12 01:24:58;;;;;;;12.95;10.50;;;12.80;99.90;;;;;;5009838;28;20065;-87
2022/07/12 01:27:46;;;;;;;13.82;9.10;;;12.70;99.90;;;;;;5011104;28;20054;-84
2022/07/12 01:30:33;;;;;;;9.68;8.27;;;12.60;99.90;;;;;;5015095;28;20377;-86
2022/07/12 01:33:20;;;;;;;10.52;8.07;;;12.60;99.90;;;;;;4996987;28;20055;-84
2022/07/12 01:36:08;;;;;;;9.18;8.15;;;12.50;99.90;;;;;;5013540;28;20046;-85
2022/07/12 01:44:18;;;;;;;10.70;7.70;;;12.50;99.90;;;;;;5004498;23;20133;-90
2022/07/12 01:47:06;;;;;;;9.75;7.95;;;12.60;99.90;;;;;;4978550;28;20365;-91
2022/07/12 01:49:53;;;;;;;8.48;7.57;;;12.80;99.90;;;;;;4977511;28;20125;-90
2022/07/12 01:52:41;;;;;;;9.48;7.03;;;12.80;99.90;;;;;;4994482;28;20102;-90
2022/07/12 01:55:31;;;;;;;9.95;6.85;;;12.80;99.90;;;;;;4970387;28;20367;-91
2022/07/12 01:58:23;;;;;;;9.75;7.28;;;12.80;99.90;;;;;;4979747;28;20125;-90
2022/07/12 02:01:12;;;;;;;7.25;6.30;;;12.80;99.90;;;;;;4991964;28;20491;-90
2022/07/12 02:04:03;;;;;;;9.27;5.65;;;12.80;99.90;;;;;;4994058;28;20049;-89
2022/07/12 02:06:51;;;;;;;11.32;6.35;;;12.70;99.90;;;;;;4985723;28;20043;-91
2022/07/12 02:09:38;;;;;;;8.35;6.78;;;12.70;99.90;;;;;;4992980;28;20082;-91
2022/07/12 02:12:25;;;;;;;7.85;7.05;;;12.60;99.90;;;;;;5005446;28;20050;-91
2022/07/12 02:15:15;;;;;;;10.95;7.50;;;12.60;99.90;;;;;;4989653;28;20078;-91
2022/07/12 02:18:02;;;;;;;8.18;5.93;;;12.60;99.90;;;;;;4975683;28;20377;-90
2022/07/12 02:20:54;;;;;;;8.10;6.10;;;12.50;99.90;;;;;;4992209;28;20039;-91
2022/07/12 02:23:42;;;;;;;10.00;6.53;;;12.40;99.90;;;;;;4993693;28;20046;-90
2022/07/12 02:26:29;;;;;;;9.40;6.63;;;12.30;99.90;;;;;;4998041;28;20740;-90
2022/07/12 02:29:18;;;;;;;7.40;6.53;;;12.20;99.90;;;;;;4976255;28;20043;-90
2022/07/12 02:32:06;;;;;;;9.15;6.55;;;12.20;99.90;;;;;;4990216;28;20055;-90
2022/07/12 02:34:54;;;;;;;9.10;6.38;;;12.20;99.90;;;;;;4979354;28;20244;-89
2022/07/12 02:37:45;;;;;;;7.55;6.18;;;12.20;99.90;;;;;;4990690;28;20495;-90
2022/07/12 02:43:40;;;;;;;7.00;6.30;;;12.10;99.90;;;;;;4991947;28;20050;-90
2022/07/12 02:54:30;;;;;;;9.50;6.47;;;12.00;99.90;;;;;;4998817;28;20129;-91
2022/07/12 02:57:18;;;;;;;9.40;6.88;;;12.10;99.90;;;;;;4994855;28;20046;-90
2022/07/12 03:00:08;;;;;;;8.98;6.82;;;12.10;99.90;;;;;;4970409;28;20098;-90
2022/07/12 03:03:00;;;;;;;9.48;7.40;;;12.00;99.90;;;;;;4992770;28;20050;-89
2022/07/12 03:05:52;;;;;;;9.02;7.63;;;11.90;99.90;;;;;;4993820;28;20050;-89
2022/07/12 03:08:47;;;;;;;13.48;8.73;;;11.90;99.90;;;;;;4998652;28;20148;-87
2022/07/12 03:11:45;;;;;;;9.38;7.63;;;12.00;99.90;;;;;;4985026;28;20087;-91
2022/07/12 03:14:32;;;;;;;11.23;8.02;;;12.10;99.90;;;;;;4996591;28;20054;-90
2022/07/12 03:17:19;;;;;;;11.55;7.13;;;12.10;99.90;;;;;;4976576;28;20497;-89
2022/07/12 03:20:11;;;;;;;10.27;7.97;;;12.00;99.90;;;;;;5010145;28;20038;-89
2022/07/12 03:23:03;;;;;;;9.13;7.40;;;12.10;99.90;;;;;;4995573;28;20053;-90
2022/07/12 03:25:55;;;;;;;10.27;7.97;;;12.10;99.90;;;;;;4993286;28;20039;-89
2022/07/12 03:28:42;;;;;;;11.27;7.93;;;12.30;99.90;;;;;;4979893;28;20050;-90
2022/07/12 03:31:29;;;;;;;12.68;8.00;;;12.30;99.90;;;;;;4986337;28;20491;-90
2022/07/12 03:34:17;;;;;;;9.45;7.32;;;12.40;99.90;;;;;;4996782;28;20077;-91
2022/07/12 03:37:04;;;;;;;11.73;7.30;;;12.50;99.90;;;;;;4981619;28;20074;-90
2022/07/12 03:39:56;;;;;;;10.05;7.28;;;12.50;99.90;;;;;;4982598;28;20133;-90
2022/07/12 03:42:44;;;;;;;10.38;7.22;;;12.50;99.90;;;;;;4981932;28;20130;-90
2022/07/12 03:45:31;;;;;;;7.78;6.63;;;12.60;99.90;;;;;;4999570;28;20077;-90
2022/07/12 03:48:20;;;;;;;8.70;6.22;;;12.70;99.90;;;;;;4995773;28;20038;-90
2022/07/12 03:51:10;;;;;;;7.95;6.13;;;12.70;99.90;;;;;;5003730;28;20077;-89
2022/07/12 03:53:57;;;;;;;8.35;5.95;;;12.70;99.90;;;;;;4991706;28;20487;-90
2022/07/12 03:59:50;;;;;;;6.25;5.38;;;12.80;99.90;;;;;;4999834;28;20130;-90
2022/07/12 04:03:25;;;;;;;9.38;7.43;;;12.80;99.90;;;;;;4992713;28;20121;-90
2022/07/12 04:06:13;;;;;;;10.25;8.50;;;12.80;99.90;;;;;;4982736;28;20056;-89
2022/07/12 04:09:01;;;;;;;10.45;8.05;;;12.80;99.90;;;;;;4975763;28;20077;-90
2022/07/12 04:11:49;;;;;;;9.90;7.45;;;12.70;99.90;;;;;;4997657;28;20061;-90
2022/07/12 04:14:36;;;;;;;8.68;7.25;;;12.60;99.90;;;;;;5003205;28;20148;-89
2022/07/12 04:17:24;;;;;;;9.77;7.32;;;12.60;99.90;;;;;;4984447;28;20051;-89
2022/07/12 04:20:12;;;;;;;8.55;7.40;;;12.60;99.90;;;;;;4970387;28;20095;-90
2022/07/12 04:22:59;;;;;;;10.35;7.45;;;12.60;99.90;;;;;;4978937;28;20153;-90
2022/07/12 04:25:54;;;;;;;9.40;7.55;;;12.60;99.90;;;;;;4977523;28;20157;-90
2022/07/12 04:28:41;;;;;;;6.38;5.72;;;12.60;99.90;;;;;;4984175;28;20058;-90
2022/07/12 04:31:40;;;;;;;6.45;5.50;;;12.60;99.90;;;;;;4996265;28;20066;-90
2022/07/12 04:34:30;;;;;;;8.73;7.82;;;12.70;99.90;;;;;;4984568;28;20150;-88
2022/07/12 04:37:17;;;;;;;9.45;8.50;;;12.70;99.90;;;;;;4982654;28;20058;-89
2022/07/12 04:40:05;;;;;;;10.95;8.70;;;12.60;99.90;;;;;;5008082;28;20042;-89
2022/07/12 04:42:57;;;;;;;11.25;8.35;;;12.60;99.90;;;;;;4978203;28;20086;-89
2022/07/12 04:45:50;;;;;;;9.95;8.23;;;12.60;99.90;;;;;;4995719;28;20368;-89
2022/07/12 04:48:43;;;;;;;9.75;8.20;;;12.70;99.90;;;;;;4988947;28;20054;-89
2022/07/12 04:51:32;;;;;;;9.90;8.90;;;12.70;99.90;;;;;;4999898;28;20054;-89
2022/07/12 04:58:06;;;;;;;9.50;7.82;;;12.90;99.90;;;;;;4990461;28;20042;-89
2022/07/12 05:05:16;;;;;;;10.02;8.00;;;13.10;99.90;;;;;;4999376;28;20034;-87
2022/07/12 05:08:42;;;;;;;8.35;7.53;;;13.20;99.90;;;;;;5001835;28;20061;-87
2022/07/12 05:11:34;;;;;;;11.25;7.72;;;13.30;99.90;;;;;;5001412;28;20085;-87
2022/07/12 05:14:56;;;;;;;7.28;6.50;;;13.30;99.90;;;;;;4981619;28;20094;-86
2022/07/12 05:17:45;;;;;;;13.48;7.40;;;13.50;99.90;;;;;;5015222;28;20074;-86
2022/07/12 05:20:37;;;;;;;9.23;6.50;;;13.50;99.90;;;;;;5007183;28;20045;-87
2022/07/12 05:23:27;;;;;;;6.63;5.90;;;13.60;99.90;;;;;;4997863;28;20038;-86
2022/07/12 05:26:22;;;;;;;5.80;5.18;;;13.80;99.90;;;;;;5002231;28;20106;-87
2022/07/12 05:29:20;;;;;;;7.45;5.30;;;13.90;99.90;;;;;;4995149;28;20062;-87
2022/07/12 05:32:08;;;;;;;6.60;5.53;;;14.00;99.90;;;;;;4982106;28;20376;-88
2022/07/12 05:34:57;;;;;;;5.32;4.78;;;14.10;99.90;;;;;;4970829;28;20467;-89
2022/07/12 05:37:46;;;;;;;7.78;5.13;;;14.20;99.90;;;;;;4986321;28;20443;-88
2022/07/12 05:40:34;;;;;;;6.60;4.22;;;14.30;99.90;;;;;;4990434;28;20058;-88
2022/07/12 05:43:26;;;;;;;8.00;4.60;;;14.40;99.90;;;;;;4978542;28;20128;-87
2022/07/12 05:46:13;;;;;;;7.63;3.75;;;14.60;99.90;;;;;;4988312;28;20042;-88
2022/07/12 05:49:01;;;;;;;5.60;4.30;;;14.70;99.90;;;;;;4992976;28;20157;-87
2022/07/12 05:54:59;;;;;;;4.07;3.67;;;14.90;99.90;;;;;;4994768;28;20105;-87
2022/07/12 05:57:46;;;;;;;5.68;3.65;;;15.10;99.90;;;;;;4988943;28;20047;-88
2022/07/12 06:00:36;;;;;;;3.75;3.17;;;15.20;99.90;;;;;;4994566;28;20118;-88
2022/07/12 06:03:28;;;;;;;4.95;3.58;;;15.30;99.90;;;;;;4995184;28;20042;-88
2022/07/12 06:06:15;;;;;;;;;;;15.40;99.90;;;;;;4983126;28;20146;-88
2022/07/12 06:09:03;;;;;;;4.25;3.30;;;15.50;99.90;;;;;;4994808;28;19921;-86
2022/07/12 06:11:56;;;;;;;4.38;3.55;;;15.60;99.90;;;;;;4990892;28;20078;-87
2022/07/12 06:14:43;;;;;;;4.68;3.53;;;15.70;99.90;;;;;;4980962;28;20064;-88
2022/07/12 06:17:30;;;;;;;4.00;3.60;;;15.80;99.90;;;;;;4988548;28;20042;-86
2022/07/12 06:20:22;;;;;;;4.15;3.53;;;15.90;99.90;;;;;;4992890;28;20043;-87
2022/07/12 06:23:09;;;;;;;6.57;4.13;;;16.10;99.90;;;;;;5000402;28;20058;-88
2022/07/12 06:25:59;;;;;;;7.05;4.35;;;16.10;99.90;;;;;;4981480;28;20100;-85
2022/07/12 06:28:49;;;;;;;4.38;3.97;;;16.20;99.90;;;;;;4973427;28;20099;-85
2022/07/12 06:31:36;;;;;;;8.30;4.10;;;16.30;99.90;;;;;;4994456;28;20086;-85
2022/07/12 06:34:28;;;;;;;5.28;3.22;;;16.40;99.90;;;;;;4993352;28;20056;-86
2022/07/12 06:37:16;;;;;;;7.15;3.40;;;16.60;99.90;;;;;;4984127;28;20054;-84
2022/07/12 06:40:06;;;;;;;5.85;2.97;;;16.80;99.90;;;;;;4979210;28;20154;-84
2022/07/12 06:42:53;;;;;;;3.60;3.22;;;17.00;99.90;;;;;;4980930;28;20046;-83
2022/07/12 06:45:46;;;;;;;7.68;2.95;;;17.40;99.90;;;;;;4966596;28;20083;-82
2022/07/12 06:48:41;;;;;;;3.90;2.92;;;17.60;99.90;;;;;;4981622;28;20047;-82
2022/07/12 06:51:28;;;;;;;3.03;2.72;;;17.70;99.90;;;;;;4984219;28;20046;-82
2022/07/12 06:54:15;;;;;;;4.68;2.53;;;17.80;99.90;;;;;;4973058;28;20510;-81
2022/07/12 06:57:05;;;;;;;3.20;2.20;;;18.00;99.90;;;;;;4975961;28;20129;-83
2022/07/12 06:59:55;;;;;;;3.38;2.22;;;18.20;99.90;;;;;;4993301;28;20062;-83
2022/07/12 07:02:42;;;;;;;4.55;2.05;;;18.50;99.90;;;;;;4986599;28;20058;-82
2022/07/12 07:05:30;;;;;;;3.90;2.25;;;18.70;99.90;;;;;;4986716;28;20383;-83
2022/07/12 07:08:19;;;;;;;3.20;2.53;;;19.00;99.90;;;;;;4991010;28;20123;-83
2022/07/12 07:11:06;;;;;;;2.42;1.63;;;19.30;99.90;;;;;;4990416;28;20054;-85
2022/07/12 07:13:55;;;;;;;2.13;1.65;;;19.60;99.90;;;;;;4977004;28;20049;-87
2022/07/12 07:16:42;;;;;;;2.35;1.50;;;20.00;99.90;;;;;;4988103;28;20317;-84
2022/07/12 07:19:29;;;;;;;2.28;1.65;;;20.40;99.90;;;;;;4984158;28;20045;-86
2022/07/12 07:22:22;;;;;;;3.63;1.60;;;20.60;99.90;;;;;;4986557;28;20038;-83
2022/07/12 07:25:09;;;;;;;2.17;1.55;;;21.10;99.90;;;;;;4984715;28;20039;-82
2022/07/12 07:27:59;;;;;;;1.80;1.70;;;21.80;99.90;;;;;;4975170;28;20050;-83
2022/07/12 07:30:55;;;;;;;2.55;1.13;;;22.10;99.90;;;;;;4992860;28;20114;-85
2022/07/12 07:33:42;;;;;;;1.90;1.27;;;22.70;99.90;;;;;;4987245;28;20038;-84
2022/07/12 07:36:33;;;;;;;3.78;1.63;;;23.20;99.40;;;;;;4986245;28;20053;-82
2022/07/12 07:39:27;;;;;;;5.35;1.20;;;23.50;95.70;;;;;;4999249;28;20046;-82
2022/07/12 07:42:14;;;;;;;2.13;1.63;;;23.80;96.40;;;;;;5001591;28;20101;-83
2022/07/12 07:45:06;;;;;;;2.00;0.98;;;24.40;94.70;;;;;;4998106;28;20447;-83
2022/07/12 07:48:11;;;;;;;3.72;1.23;;;25.10;1.00;;;;;;5001028;28;20042;-84
2022/07/12 07:51:15;;;;;;;3.57;1.20;;;25.40;1.00;;;;;;4987449;28;20066;-83
2022/07/12 07:54:04;;;;;;;2.05;1.02;;;25.40;1.00;;;;;;4993899;28;20296;-83
2022/07/12 07:56:52;;;;;;;3.45;1.63;;;25.20;1.00;;;;;;4996852;28;20044;-81
2022/07/12 07:59:50;;;;;;;4.65;1.20;;;24.70;1.00;;;;;;4988244;28;20380;-83
2022/07/12 08:02:40;;;;;;;2.22;0.90;;;24.80;1.00;;;;;;4978749;28;20054;-82
2022/07/12 08:05:30;;;;;;;3.08;1.05;;;25.10;1.00;;;;;;4997293;28;20198;-83
2022/07/12 08:08:18;;;;;;;4.18;0.90;;;25.50;1.00;;;;;;4995585;28;20132;-84
2022/07/12 08:11:08;;;;;;;1.60;0.90;;;26.00;1.00;;;;;;4992497;28;20075;-84
2022/07/12 08:13:58;;;;;;;0.80;0.70;;;26.00;1.00;;;;;;4992803;28;20046;-82
2022/07/12 08:16:46;;;;;;;0.85;0.60;;;26.30;1.00;;;;;;4990241;28;20140;-81
2022/07/12 08:19:35;;;;;;;1.83;0.70;;;26.70;1.00;;;;;;5006451;28;20129;-81
2022/07/12 08:22:25;;;;;;;4.22;0.68;;;27.10;1.00;;;;;;4987122;28;20215;-82
2022/07/12 08:25:15;;;;;;;0.63;0.57;;;27.00;1.00;;;;;;4999796;28;20046;-81
2022/07/12 08:28:11;;;;;;;0.70;0.70;;;27.10;1.00;;;;;;4998784;28;20122;-83
2022/07/12 08:31:01;;;;;;;0.60;0.60;;;27.30;1.00;;;;;;4996896;28;20045;-84
2022/07/12 08:33:53;;;;;;;1.05;0.75;;;26.60;1.00;;;;;;4999563;28;20065;-82
2022/07/12 08:36:45;;;;;;;1.08;0.90;;;26.00;1.00;;;;;;4993843;28;20050;-81
2022/07/12 08:39:34;;;;;;;0.88;0.80;;;25.60;1.00;;;;;;4992649;28;20046;-82
2022/07/12 08:42:23;;;;;;;2.08;1.00;;;25.40;1.00;;;;;;4993092;28;20488;-83
2022/07/12 08:45:15;;;;;;;1.77;0.80;;;25.30;1.00;;;;;;4988013;28;20069;-80
2022/07/12 08:48:05;;;;;;;0.63;0.63;;;26.10;1.00;;;;;;4985314;28;20043;-82
2022/07/12 08:51:14;;;;;;;1.23;0.93;;;27.00;1.00;;;;;;4992151;28;20050;-80
2022/07/12 08:54:05;;;;;;;4.00;0.73;;;26.80;1.00;;;;;;4989194;28;20045;-80
2022/07/12 08:56:58;;;;;;;2.17;1.17;;;26.20;1.00;;;;;;5000575;28;20047;-81
2022/07/12 08:59:47;;;;;;;1.90;0.80;;;25.70;1.00;;;;;;4990452;28;20042;-81
2022/07/12 09:02:46;;;;;;;2.90;1.10;;;25.00;1.00;;;;;;4996439;28;20110;-82
2022/07/12 09:05:46;;;;;;;2.58;1.20;;;23.80;1.00;;;;;;4993692;28;20044;-81
2022/07/12 09:08:41;;;;;;;1.02;0.80;;;24.30;1.00;;;;;;4985957;28;20076;-82
2022/07/12 09:11:28;;;;;;;1.55;0.82;;;25.90;1.00;;;;;;5001717;28;20058;-82
2022/07/12 09:14:21;;;;;;;1.05;0.85;;;27.70;1.00;;;;;;4997057;28;20097;-82
2022/07/12 09:17:14;;;;;;;1.33;0.75;;;28.50;1.00;;;;;;4989932;28;20054;-82
2022/07/12 09:20:03;;;;;;;1.95;0.90;;;28.20;1.00;;;;;;4991693;28;20109;-83
2022/07/12 09:23:12;;;;;;;1.20;0.65;;;28.00;1.00;;;;;;4984755;28;20042;-82
2022/07/12 09:26:00;;;;;;;3.55;0.70;;;29.30;1.00;;;;;;4989265;28;20050;-82
2022/07/12 09:28:50;;;;;;;3.08;0.60;;;29.70;1.00;;;;;;4988514;28;20157;-81
2022/07/12 09:36:06;;;;;;;3.40;0.70;;;30.20;1.00;;;;;;4994191;28;20050;-84
2022/07/12 09:38:09;;;;;;;0.70;0.70;;;31.20;99.90;;;;;;5000454;28;20370;-83
2022/07/12 09:40:57;;;;;;;2.33;0.75;;;31.70;99.90;;;;;;4985143;28;20043;-83
2022/07/12 09:43:45;;;;;;;0.80;0.80;;;32.00;99.90;;;;;;4981582;28;20050;-81
2022/07/12 09:46:35;;;;;;;1.42;0.60;;;31.20;99.90;;;;;;5003422;28;20149;-82
2022/07/12 09:49:26;;;;;;;1.65;0.82;;;31.60;99.90;;;;;;4986642;28;20100;-82
2022/07/12 09:52:24;;;;;;;1.63;0.98;;;32.60;99.90;;;;;;4989776;28;20098;-79
2022/07/12 09:55:17;;;;;;;1.50;0.90;;;31.50;99.90;;;;;;5064450;23;20050;-84
2022/07/12 09:58:06;;;;;;;1.80;1.02;;;30.40;99.90;;;;;;5002400;28;20045;-84
2022/07/12 10:00:55;;;;;;;1.35;0.95;;;29.20;99.90;;;;;;5019703;28;20160;-83
2022/07/12 10:03:45;;;;;;;1.20;0.88;;;28.50;99.90;;;;;;5004244;28;20069;-80
2022/07/12 10:06:35;;;;;;;0.90;0.90;;;29.00;99.90;;;;;;4997484;28;20061;-82
2022/07/12 10:09:24;;;;;;;2.88;0.90;;;28.70;99.90;;;;;;5010293;28;20070;-84
2022/07/12 10:12:16;;;;;;;0.90;0.75;;;28.50;99.90;;;;;;5019524;28;20053;-81
2022/07/12 10:15:08;;;;;;;4.15;0.60;;;29.10;99.90;;;;;;4999046;28;20132;-82
2022/07/12 10:18:00;;;;;;;;;;;30.20;99.90;;;;;;5017214;28;20056;-82
2022/07/12 10:20:51;;;;;;;2.10;1.00;;;30.60;99.90;;;;;;4999121;28;19932;-81
2022/07/12 10:23:38;;;;;;;2.00;0.80;;;31.20;99.90;;;;;;5010589;28;20127;-83
2022/07/12 10:26:38;;;;;;;1.10;0.80;;;32.10;99.90;;;;;;5003613;28;20152;-81
2022/07/12 10:29:26;;;;;;;1.25;0.73;;;32.40;99.90;;;;;;5012335;28;20046;-82
2022/07/12 10:32:34;;;;;;;1.50;0.70;;;33.10;99.90;;;;;;5012184;28;20041;-83
2022/07/12 10:35:23;;;;;;;3.35;0.90;;;33.20;99.90;;;;;;5003837;28;20086;-83
2022/07/12 10:38:18;;;;;;;1.10;0.70;;;33.10;99.90;;;;;;4990776;28;20042;-84
2022/07/12 10:41:26;;;;;;;1.85;0.60;;;33.50;99.90;;;;;;5005819;28;20054;-82
2022/07/12 10:44:40;;;;;;;0.93;0.80;;;34.30;99.90;;;;;;4995082;28;20053;-83
2022/07/12 10:47:27;;;;;;;0.75;0.70;;;34.30;99.90;;;;;;4993229;28;20053;-84
2022/07/12 10:50:17;;;;;;;1.50;0.60;;;34.10;99.90;;;;;;5003707;28;20129;-84
2022/07/12 10:53:22;;;;;;;2.65;0.88;;;34.30;99.90;;;;;;5010366;28;20057;-82
2022/07/12 11:00:58;;;;;;;0.60;0.57;;;34.40;99.90;;;;;;4997612;28;20041;-83
2022/07/12 11:29:03;;;;;;;0.85;0.60;;;32.10;99.90;;;;;;5011080;28;20030;-83
2022/07/12 18:56:50;;;;;;;1.80;0.60;;;22.30;99.90;;;;;;4880584;29;20352;-81
2022/07/12 19:29:09;;;;;;;4.75;1.20;;;20.40;99.90;;;;;;4855833;29;20041;-82
